Time;durP1;ratioP1;P1;durP2;ratioP2;P2;SDS_P1;SDS_P2;PMS_P1;PMS_P2;Temp;Humidity;BMP_temperature;BMP_pressure;BME280_temperature;BME280_humidity;BME280_pressure;Samples;Min_cycle;Max_cycle;Signal;HPM_P1;HPM_P2
2021/12/02 00:01:07;;;;;;;16.63;10.38;;;;;;;4.85;94.66;99264.38;5053833;28;20497;-45
2021/12/02 00:03:37;;;;;;;19.77;9.93;;;;;;;4.77;94.64;99263.53;5053765;28;20414;-48
2021/12/02 00:06:13;;;;;;;15.18;9.50;;;;;;;4.79;94.42;99267.59;5041425;28;20055;-51
2021/12/02 00:08:41;;;;;;;17.63;9.75;;;;;;;4.79;94.19;99275.38;5064791;28;20056;-47
2021/12/02 00:11:09;;;;;;;19.85;10.57;;;;;;;4.78;94.89;99265.16;5066683;28;20139;-48
2021/12/02 00:13:47;;;;;;;21.90;9.98;;;;;;;4.76;94.90;99273.06;5057155;28;20049;-50
2021/12/02 00:16:29;;;;;;;14.88;10.13;;;;;;;4.72;94.92;99270.97;5043768;28;20048;-46
2021/12/02 00:22:27;;;;;;;21.88;10.55;;;;;;;4.75;94.56;99275.81;5049551;23;20063;-50
2021/12/02 00:25:00;;;;;;;20.90;10.90;;;;;;;4.84;94.53;99280.09;5053456;28;20516;-46
2021/12/02 00:27:29;;;;;;;20.73;11.77;;;;;;;4.82;94.85;99274.25;5053612;28;20103;-46
2021/12/02 00:29:58;;;;;;;21.92;11.90;;;;;;;4.86;94.19;99272.97;5053480;28;20049;-45
2021/12/02 00:32:29;;;;;;;23.20;11.65;;;;;;;4.86;94.70;99273.78;5053705;28;20044;-51
2021/12/02 00:34:57;;;;;;;22.00;11.95;;;;;;;4.83;94.31;99275.88;5052920;28;20045;-49
2021/12/02 00:37:27;;;;;;;21.90;11.63;;;;;;;4.90;94.66;99271.72;5052988;28;20568;-45
2021/12/02 00:39:55;;;;;;;17.85;11.07;;;;;;;4.86;94.28;99278.97;5053343;28;20550;-46
2021/12/02 00:42:45;;;;;;;20.45;11.35;;;;;;;4.85;94.53;99279.13;5053459;28;20056;-49
2021/12/02 00:45:12;;;;;;;19.45;10.82;;;;;;;4.84;94.15;99274.91;5053303;28;20064;-51
2021/12/02 00:47:42;;;;;;;22.60;11.27;;;;;;;4.82;94.16;99272.47;5053204;28;20041;-48
2021/12/02 00:50:10;;;;;;;23.77;11.60;;;;;;;4.82;94.32;99282.84;5052586;28;20418;-48
2021/12/02 00:52:39;;;;;;;22.20;11.48;;;;;;;4.87;94.50;99282.38;5052914;28;20598;-50
2021/12/02 00:55:06;;;;;;;22.75;11.30;;;;;;;4.87;94.05;99283.19;5053175;28;20056;-47
2021/12/02 00:57:33;;;;;;;17.90;11.50;;;;;;;4.83;94.04;99284.47;5053043;28;20076;-46
2021/12/02 01:00:03;;;;;;;25.23;12.82;;;;;;;4.81;94.06;99283.81;5052509;28;20044;-46
2021/12/02 01:02:30;;;;;;;23.38;11.40;;;;;;;4.82;94.04;99282.84;5052321;28;20061;-48
2021/12/02 01:04:58;;;;;;;19.60;11.90;;;;;;;4.80;94.57;99279.59;5052697;28;20773;-46
2021/12/02 01:07:25;;;;;;;17.90;12.25;;;;;;;4.79;94.68;99283.13;5052371;28;20124;-47
2021/12/02 01:09:59;;;;;;;23.08;12.10;;;;;;;4.81;94.25;99290.75;5052557;28;20045;-47
2021/12/02 01:12:26;;;;;;;23.98;12.52;;;;;;;4.77;94.55;99292.03;5052729;28;20099;-47
2021/12/02 01:15:08;;;;;;;22.02;12.20;;;;;;;4.81;94.23;99290.75;5052628;28;20077;-46
2021/12/02 01:17:41;;;;;;;21.70;11.90;;;;;;;4.78;94.41;99297.06;5043718;28;20049;-47
2021/12/02 01:23:19;;;;;;;19.17;12.48;;;;;;;4.84;94.08;99293.88;5028450;23;20045;-55
2021/12/02 01:25:49;;;;;;;21.33;13.20;;;;;;;4.79;93.68;99293.50;5033024;28;20081;-51
2021/12/02 01:28:17;;;;;;;39.40;18.55;;;;;;;4.81;93.74;99299.34;5032210;28;20510;-50
2021/12/02 01:30:46;;;;;;;38.97;18.60;;;;;;;4.81;94.31;99294.16;5032640;28;20563;-51
2021/12/02 01:33:16;;;;;;;29.25;16.23;;;;;;;4.83;94.18;99294.84;5032357;28;20100;-54
2021/12/02 01:35:50;;;;;;;31.75;16.52;;;;;;;4.84;93.45;99296.47;5032313;28;20049;-51
2021/12/02 01:38:17;;;;;;;18.08;12.35;;;;;;;4.82;92.74;99298.38;5032343;28;20468;-53
2021/12/02 01:40:44;;;;;;;19.52;12.10;;;;;;;4.87;93.08;99301.34;5032281;28;20112;-50
2021/12/02 01:43:17;;;;;;;17.90;11.93;;;;;;;4.88;92.47;99299.56;5032594;28;20085;-52
2021/12/02 01:45:44;;;;;;;16.60;9.50;;;;;;;4.86;92.37;99298.91;5031406;28;20475;-54
2021/12/02 01:48:13;;;;;;;18.90;11.88;;;;;;;4.89;92.89;99301.19;5031995;28;20084;-53
2021/12/02 01:50:41;;;;;;;19.65;12.25;;;;;;;4.92;93.14;99293.13;5031557;28;20063;-49
2021/12/02 01:53:09;;;;;;;18.40;12.05;;;;;;;4.88;92.95;99299.56;5032249;28;20084;-52
2021/12/02 01:55:43;;;;;;;22.02;13.38;;;;;;;4.84;93.20;99296.47;5032045;28;20104;-50
2021/12/02 01:58:16;;;;;;;25.77;15.40;;;;;;;4.86;92.85;99288.53;5016698;28;20418;-49
2021/12/02 02:00:45;;;;;;;24.67;14.65;;;;;;;4.86;93.17;99294.53;5032119;28;20088;-50
2021/12/02 02:03:15;;;;;;;24.25;15.55;;;;;;;4.90;93.00;99295.84;5031806;28;20500;-49
2021/12/02 02:05:43;;;;;;;29.83;16.98;;;;;;;4.89;92.87;99294.22;5031981;28;20479;-47
2021/12/02 02:08:21;;;;;;;32.20;16.27;;;;;;;4.95;93.00;99301.41;5031723;28;20124;-52
2021/12/02 02:10:49;;;;;;;25.98;14.60;;;;;;;4.97;91.81;99301.25;5031491;28;20084;-53
2021/12/02 02:13:19;;;;;;;28.58;14.63;;;;;;;4.92;91.96;99295.69;5031654;28;20049;-49
2021/12/02 02:15:49;;;;;;;22.50;14.75;;;;;;;4.92;92.04;99304.28;5031457;28;20609;-51
2021/12/02 02:18:20;;;;;;;25.65;14.25;;;;;;;4.93;92.15;99305.91;5031714;28;20045;-51
2021/12/02 02:20:51;;;;;;;24.73;14.85;;;;;;;4.95;92.41;99309.19;5031655;28;20053;-49
2021/12/02 02:23:18;;;;;;;24.23;14.90;;;;;;;4.93;92.65;99310.28;5031334;28;20049;-52
2021/12/02 02:25:46;;;;;;;25.75;14.55;;;;;;;4.80;93.38;99315.88;5032016;28;20053;-50
2021/12/02 02:28:13;;;;;;;21.52;13.77;;;;;;;4.86;93.74;99299.72;5031717;28;20049;-49
2021/12/02 02:30:41;;;;;;;22.05;14.90;;;;;;;4.74;94.22;99303.50;5031525;28;20116;-50
2021/12/02 02:33:07;;;;;;;23.45;14.45;;;;;;;4.76;94.66;99299.00;5031783;28;20056;-52
2021/12/02 02:35:34;;;;;;;26.77;14.65;;;;;;;4.71;94.36;99305.63;5031697;28;20095;-50
2021/12/02 02:38:02;;;;;;;24.13;13.45;;;;;;;4.64;94.06;99295.03;5031306;28;20483;-48
2021/12/02 02:40:30;;;;;;;26.58;13.85;;;;;;;4.60;93.68;99294.53;5031431;28;20460;-49
2021/12/02 02:43:00;;;;;;;20.08;13.35;;;;;;;4.60;94.51;99291.94;5031868;28;20091;-50
2021/12/02 02:45:27;;;;;;;20.13;13.27;;;;;;;4.63;93.67;99288.22;5031797;28;20072;-50
2021/12/02 02:47:53;;;;;;;18.90;11.30;;;;;;;4.61;92.32;99290.16;5031258;28;20120;-51
2021/12/02 02:50:20;;;;;;;20.08;11.27;;;;;;;4.57;93.40;99294.00;5030858;28;20670;-49
2021/12/02 02:52:49;;;;;;;18.27;11.32;;;;;;;4.54;93.04;99286.53;5030914;28;20088;-49
2021/12/02 02:55:22;;;;;;;19.00;10.93;;;;;;;4.52;93.77;99298.81;5031094;28;20077;-48
2021/12/02 02:57:56;;;;;;;19.98;10.77;;;;;;;4.54;93.55;99295.13;5030858;28;20049;-47
2021/12/02 03:00:30;;;;;;;20.17;10.85;;;;;;;4.54;93.48;99294.31;5031294;28;20430;-51
2021/12/02 03:03:02;;;;;;;19.35;10.45;;;;;;;4.55;93.49;99303.69;5031342;28;20459;-50
2021/12/02 03:05:38;;;;;;;21.02;11.57;;;;;;;4.58;92.64;99308.59;5031130;28;20403;-49
2021/12/02 03:08:13;;;;;;;19.02;11.00;;;;;;;4.59;93.12;99300.66;5014987;28;20056;-52
2021/12/02 03:10:44;;;;;;;19.88;11.52;;;;;;;4.61;93.78;99305.69;5030933;28;20411;-49
2021/12/02 03:13:16;;;;;;;16.75;11.38;;;;;;;4.57;93.83;99294.81;5031100;28;20111;-51
2021/12/02 03:18:28;;;;;;;24.27;11.52;;;;;;;4.51;94.54;99298.00;5030567;28;20521;-49
2021/12/02 03:20:56;;;;;;;21.98;13.15;;;;;;;4.51;94.55;99304.97;5030948;28;20095;-50
2021/12/02 03:23:23;;;;;;;23.10;13.98;;;;;;;4.49;93.34;99293.94;5030599;28;20419;-49
2021/12/02 03:25:51;;;;;;;23.65;14.45;;;;;;;4.48;94.22;99300.06;5030287;28;20107;-50
2021/12/02 03:28:18;;;;;;;20.33;14.10;;;;;;;4.50;93.73;99303.34;5030250;28;20053;-49
2021/12/02 03:30:45;;;;;;;19.05;12.82;;;;;;;4.47;93.63;99299.25;5030652;28;20148;-50
2021/12/02 03:33:12;;;;;;;17.33;12.73;;;;;;;4.53;94.55;99297.84;5030673;28;20132;-52
2021/12/02 03:35:39;;;;;;;22.35;12.55;;;;;;;4.45;93.89;99306.38;5030304;28;20057;-52
2021/12/02 03:38:05;;;;;;;21.27;12.05;;;;;;;4.45;94.33;99302.97;5030174;28;20050;-47
2021/12/02 03:40:32;;;;;;;21.05;11.85;;;;;;;4.46;94.05;99302.81;5029742;28;20137;-52
2021/12/02 03:43:00;;;;;;;22.17;12.65;;;;;;;4.47;93.98;99303.63;5030992;28;20132;-50
2021/12/02 03:45:27;;;;;;;25.63;13.10;;;;;;;4.48;94.17;99310.44;5030948;28;20077;-48
2021/12/02 03:47:54;;;;;;;26.25;13.25;;;;;;;4.51;94.24;99310.16;5030843;28;20147;-53
2021/12/02 03:50:21;;;;;;;22.50;13.02;;;;;;;4.46;94.12;99302.00;5030165;28;20511;-51
2021/12/02 03:52:47;;;;;;;23.60;12.98;;;;;;;4.44;94.10;99306.53;5030204;28;20152;-50
2021/12/02 03:55:14;;;;;;;25.33;13.63;;;;;;;4.41;94.45;99312.81;5030202;28;20530;-50
2021/12/02 03:57:40;;;;;;;23.35;11.90;;;;;;;4.42;94.51;99316.22;5030274;28;20053;-52
2021/12/02 04:00:09;;;;;;;21.50;10.82;;;;;;;4.41;93.18;99301.63;5030096;28;20573;-49
2021/12/02 04:02:36;;;;;;;16.17;6.45;;;;;;;4.30;91.56;99306.06;5030452;28;20389;-53
2021/12/02 04:05:03;;;;;;;14.70;6.45;;;;;;;4.31;90.67;99302.53;5030355;28;20467;-52
2021/12/02 04:07:30;;;;;;;13.25;7.85;;;;;;;4.29;91.75;99307.03;5030278;28;20132;-49
2021/12/02 04:09:58;;;;;;;12.55;7.07;;;;;;;4.24;91.79;99301.50;5031962;28;20423;-47
2021/12/02 04:12:31;;;;;;;12.50;6.65;;;;;;;4.31;91.53;99312.06;5034058;28;20045;-49
2021/12/02 04:15:03;;;;;;;12.18;6.07;;;;;;;4.23;90.55;99312.84;5031070;28;20069;-51
2021/12/02 04:17:42;;;;;;;13.33;5.83;;;;;;;4.18;90.25;99309.88;5033624;28;20049;-49
2021/12/02 04:20:12;;;;;;;11.00;5.40;;;;;;;4.15;91.70;99310.16;5027761;28;20042;-49
2021/12/02 04:22:39;;;;;;;13.18;5.82;;;;;;;4.21;90.99;99319.13;5035184;28;20168;-49
2021/12/02 04:25:08;;;;;;;9.95;5.80;;;;;;;4.21;90.55;99317.34;5034329;28;20369;-49
2021/12/02 04:27:35;;;;;;;10.73;6.47;;;;;;;4.22;91.50;99313.78;5034083;28;20466;-51
2021/12/02 04:30:04;;;;;;;11.23;6.15;;;;;;;4.23;90.83;99315.41;5029740;28;20049;-50
2021/12/02 04:32:33;;;;;;;12.20;6.20;;;;;;;4.13;91.77;99306.91;5032463;28;20076;-51
2021/12/02 04:34:59;;;;;;;10.63;6.65;;;;;;;4.15;91.73;99304.97;5032444;28;20128;-49
2021/12/02 04:37:26;;;;;;;16.88;8.70;;;;;;;4.17;92.01;99318.59;5032316;28;20077;-50
2021/12/02 04:39:53;;;;;;;15.45;10.18;;;;;;;4.23;91.19;99323.19;5032152;28;20080;-50
2021/12/02 04:42:21;;;;;;;15.93;9.57;;;;;;;4.17;91.75;99318.59;5032499;28;20144;-50
2021/12/02 04:44:49;;;;;;;17.67;9.18;;;;;;;4.21;92.43;99326.88;5032637;28;20499;-48
2021/12/02 04:47:17;;;;;;;15.45;9.70;;;;;;;4.21;92.55;99325.09;5034993;28;20076;-50
2021/12/02 04:49:47;;;;;;;17.48;9.65;;;;;;;4.25;92.39;99326.41;5035619;28;20187;-50
2021/12/02 04:52:17;;;;;;;17.50;9.55;;;;;;;4.25;92.42;99318.66;5032179;28;20128;-49
2021/12/02 04:54:46;;;;;;;16.00;8.75;;;;;;;4.15;92.82;99320.50;5031899;28;20107;-49
2021/12/02 04:57:13;;;;;;;12.23;8.07;;;;;;;4.15;92.68;99317.94;5032364;28;20096;-51
2021/12/02 04:59:42;;;;;;;14.30;7.93;;;;;;;4.14;92.23;99326.66;5031439;28;20056;-48
2021/12/02 05:02:08;;;;;;;18.35;7.35;;;;;;;4.17;92.44;99323.78;5032910;28;20427;-48
2021/12/02 05:04:35;;;;;;;12.60;6.38;;;;;;;4.14;91.88;99321.47;5032549;28;20460;-53
2021/12/02 05:07:03;;;;;;;13.05;5.40;;;;;;;4.14;91.86;99329.25;5033026;28;20133;-52
2021/12/02 05:09:30;;;;;;;10.85;5.10;;;;;;;4.13;91.98;99332.78;5032664;28;20089;-50
2021/12/02 05:11:57;;;;;;;10.13;4.85;;;;;;;4.08;91.45;99329.81;5033304;28;20499;-49
2021/12/02 05:14:23;;;;;;;7.68;5.13;;;;;;;4.15;92.23;99336.06;5032908;28;20088;-49
2021/12/02 05:16:53;;;;;;;14.60;6.38;;;;;;;4.14;91.86;99324.06;5032942;28;20111;-50
2021/12/02 05:19:20;;;;;;;15.48;7.72;;;;;;;4.13;91.17;99325.03;5031805;28;20824;-50
2021/12/02 05:21:46;;;;;;;15.52;6.57;;;;;;;4.15;90.86;99328.28;5032964;28;20077;-49
2021/12/02 05:24:14;;;;;;;12.00;6.00;;;;;;;4.10;90.45;99333.09;5033813;28;20100;-49
2021/12/02 05:26:41;;;;;;;13.07;6.28;;;;;;;4.10;90.82;99333.09;5033835;28;20176;-50
2021/12/02 05:29:08;;;;;;;10.02;5.88;;;;;;;4.03;91.36;99326.03;5033574;28;20089;-48
2021/12/02 05:31:34;;;;;;;16.48;5.40;;;;;;;4.00;91.46;99329.72;5032826;28;20125;-47
2021/12/02 05:34:01;;;;;;;7.93;4.85;;;;;;;4.00;91.37;99329.72;5033022;28;20045;-48
2021/12/02 05:36:28;;;;;;;13.85;4.63;;;;;;;3.96;91.50;99333.56;5032816;28;20125;-49
2021/12/02 05:38:54;;;;;;;8.75;4.80;;;;;;;3.94;91.60;99333.72;5032383;28;20089;-50
2021/12/02 05:41:22;;;;;;;8.25;4.50;;;;;;;3.99;91.87;99328.09;5032486;28;20171;-48
2021/12/02 05:43:49;;;;;;;11.00;4.40;;;;;;;3.92;91.26;99332.22;5032238;28;20049;-49
2021/12/02 05:46:16;;;;;;;10.25;5.00;;;;;;;3.99;90.80;99330.69;5027441;28;20088;-51
2021/12/02 05:48:42;;;;;;;11.13;6.10;;;;;;;3.91;91.39;99326.25;5032451;28;20123;-49
2021/12/02 05:51:09;;;;;;;11.02;5.75;;;;;;;3.94;91.20;99332.91;5032422;28;20532;-47
2021/12/02 05:53:37;;;;;;;10.05;5.97;;;;;;;3.91;90.97;99328.00;5032131;28;20141;-52
2021/12/02 05:56:04;;;;;;;8.82;5.03;;;;;;;3.94;90.92;99327.72;5030878;28;20532;-49
2021/12/02 05:58:33;;;;;;;11.60;4.85;;;;;;;3.98;90.88;99332.47;5029685;28;20429;-47
2021/12/02 06:00:59;;;;;;;20.08;6.10;;;;;;;4.00;90.75;99335.72;5030835;28;20053;-52
2021/12/02 06:03:26;;;;;;;11.02;6.03;;;;;;;4.03;91.26;99333.81;5032551;28;20159;-53
2021/12/02 06:05:53;;;;;;;8.25;5.00;;;;;;;3.92;91.48;99325.28;5031012;28;20095;-50
2021/12/02 06:08:19;;;;;;;9.35;4.57;;;;;;;3.86;90.21;99333.63;5030352;28;20045;-52
2021/12/02 06:10:46;;;;;;;7.68;4.60;;;;;;;3.78;89.90;99324.97;5030610;28;20123;-51
2021/12/02 06:13:13;;;;;;;6.43;4.00;;;;;;;3.64;89.88;99336.59;5031620;28;20045;-49
2021/12/02 06:15:41;;;;;;;6.85;3.70;;;;;;;3.59;90.05;99333.63;5031191;28;20087;-48
2021/12/02 06:18:08;;;;;;;9.65;3.83;;;;;;;3.55;90.33;99343.44;5031097;28;20135;-50
2021/12/02 06:20:35;;;;;;;9.18;3.80;;;;;;;3.57;90.00;99336.38;5030007;28;20459;-47
2021/12/02 06:23:01;;;;;;;7.97;4.15;;;;;;;3.52;90.60;99354.06;5031396;28;20144;-48
2021/12/02 06:25:46;;;;;;;10.20;4.65;;;;;;;3.50;90.50;99350.81;5031317;28;20370;-48
2021/12/02 06:28:14;;;;;;;11.20;5.20;;;;;;;3.48;90.33;99357.09;5031601;28;20598;-49
2021/12/02 06:30:42;;;;;;;7.25;4.80;;;;;;;3.43;90.74;99361.88;5030938;28;20107;-48
2021/12/02 06:33:08;;;;;;;9.63;4.82;;;;;;;3.43;91.70;99357.50;5030588;28;20132;-48
2021/12/02 06:35:35;;;;;;;9.90;5.35;;;;;;;3.39;91.50;99361.31;5030562;28;20106;-50
2021/12/02 06:38:05;;;;;;;12.50;5.85;;;;;;;3.46;91.63;99361.59;5030770;28;20100;-50
2021/12/02 06:40:31;;;;;;;9.30;6.10;;;;;;;3.58;91.22;99368.22;5030154;28;20503;-53
2021/12/02 06:42:58;;;;;;;8.02;5.82;;;;;;;3.50;91.77;99371.50;5030832;28;20566;-49
2021/12/02 06:45:25;;;;;;;8.95;5.90;;;;;;;3.48;91.39;99378.59;5030594;28;20046;-49
2021/12/02 06:47:58;;;;;;;9.85;6.53;;;;;;;3.49;90.88;99380.22;5031264;28;20092;-53
2021/12/02 06:50:25;;;;;;;15.68;7.20;;;;;;;3.51;91.18;99378.31;5030892;28;20049;-49
2021/12/02 06:52:54;;;;;;;12.77;7.75;;;;;;;3.53;91.49;99385.94;5031275;28;20046;-49
2021/12/02 06:55:22;;;;;;;13.52;8.43;;;;;;;3.53;91.19;99373.81;5031129;28;20500;-53
2021/12/02 06:57:49;;;;;;;18.02;8.55;;;;;;;3.49;91.07;99384.56;5031025;28;20087;-49
2021/12/02 07:00:19;;;;;;;13.38;8.27;;;;;;;3.56;90.88;99381.28;5029122;28;20077;-52
2021/12/02 07:02:46;;;;;;;16.08;8.00;;;;;;;3.56;90.69;99378.69;5024206;28;20057;-54
2021/12/02 07:05:17;;;;;;;14.15;8.32;;;;;;;3.52;92.10;99379.94;5022754;28;20496;-55
2021/12/02 07:07:45;;;;;;;12.02;7.20;;;;;;;3.50;91.95;99387.03;5020604;28;20076;-51
2021/12/02 07:10:16;;;;;;;11.80;6.95;;;;;;;3.53;91.60;99384.16;5022222;28;20096;-51
2021/12/02 07:12:45;;;;;;;13.88;7.50;;;;;;;3.55;91.62;99395.19;5022038;28;20499;-52
2021/12/02 07:15:16;;;;;;;14.55;7.10;;;;;;;3.55;91.35;99397.75;5021587;28;20133;-50
2021/12/02 07:17:44;;;;;;;14.13;7.38;;;;;;;3.55;91.53;99400.34;5021881;28;20187;-49
2021/12/02 07:20:12;;;;;;;13.15;7.75;;;;;;;3.53;91.88;99404.03;5016497;28;20053;-51
2021/12/02 07:22:43;;;;;;;13.70;6.97;;;;;;;3.56;91.45;99404.56;5022305;28;20388;-49
2021/12/02 07:25:13;;;;;;;10.93;6.47;;;;;;;3.47;91.02;99408.00;5019181;28;20478;-49
2021/12/02 07:27:41;;;;;;;11.18;6.53;;;;;;;3.50;91.19;99418.06;5023300;28;20049;-54
2021/12/02 07:30:09;;;;;;;10.75;6.38;;;;;;;3.45;91.00;99420.25;5024092;28;20135;-49
2021/12/02 07:32:39;;;;;;;11.75;6.25;;;;;;;3.46;90.92;99427.06;5019708;28;20085;-48
2021/12/02 07:35:10;;;;;;;7.80;4.95;;;;;;;3.44;89.65;99430.72;5035166;23;20338;-46
2021/12/02 07:37:37;;;;;;;7.60;4.30;;;;;;;3.48;89.12;99432.91;5010582;28;20577;-45
2021/12/02 07:40:06;;;;;;;5.13;3.95;;;;;;;3.39;89.29;99435.50;5010176;28;20050;-43
2021/12/02 07:42:33;;;;;;;9.00;4.68;;;;;;;3.39;89.10;99438.09;5011060;28;20157;-47
2021/12/02 07:45:01;;;;;;;7.88;4.70;;;;;;;3.38;89.01;99439.84;5012294;28;20129;-49
2021/12/02 07:47:27;;;;;;;10.15;4.53;;;;;;;3.32;88.82;99443.00;5014289;28;20050;-49
2021/12/02 07:49:54;;;;;;;8.55;4.53;;;;;;;3.38;89.04;99445.03;5014390;28;20058;-44
2021/12/02 07:52:25;;;;;;;8.07;4.53;;;;;;;3.35;88.98;99455.66;5014444;28;20100;-48
2021/12/02 07:54:55;;;;;;;10.80;4.88;;;;;;;3.37;88.63;99453.75;5014377;28;20500;-45
2021/12/02 07:57:23;;;;;;;9.45;5.20;;;;;;;3.30;88.98;99452.69;5014178;28;20077;-44
2021/12/02 07:59:50;;;;;;;12.45;5.55;;;;;;;3.29;88.84;99462.22;5008739;28;20519;-46
2021/12/02 08:02:19;;;;;;;12.18;5.80;;;;;;;3.34;89.80;99460.00;5014099;28;20370;-45
2021/12/02 08:04:46;;;;;;;10.10;6.38;;;;;;;3.29;90.09;99463.97;5013754;28;20099;-49
2021/12/02 08:07:13;;;;;;;11.75;6.32;;;;;;;3.27;89.77;99463.31;5014352;28;20050;-45
2021/12/02 08:09:39;;;;;;;11.93;6.32;;;;;;;3.30;90.05;99473.38;5014310;28;20042;-48
2021/12/02 08:12:06;;;;;;;8.75;6.60;;;;;;;3.30;89.80;99475.97;5004625;28;20077;-46
2021/12/02 08:14:34;;;;;;;11.18;6.88;;;;;;;3.36;90.07;99483.13;5013062;28;20080;-49
2021/12/02 08:17:01;;;;;;;13.35;7.65;;;;;;;3.30;89.49;99478.53;5001531;28;20074;-52
2021/12/02 08:19:28;;;;;;;13.93;7.65;;;;;;;3.29;89.15;99488.06;4994591;28;20112;-45
2021/12/02 08:21:54;;;;;;;12.75;7.78;;;;;;;3.35;89.50;99489.25;4994964;28;20054;-50
2021/12/02 08:24:23;;;;;;;10.52;7.35;;;;;;;3.34;89.91;99493.63;4994280;28;20062;-49
2021/12/02 08:26:50;;;;;;;10.45;6.68;;;;;;;3.32;89.16;99492.13;4994337;28;20368;-46
2021/12/02 08:29:17;;;;;;;10.27;6.60;;;;;;;3.37;89.21;99500.28;4986339;28;20132;-44
2021/12/02 08:31:46;;;;;;;9.38;6.18;;;;;;;3.39;88.88;99502.72;4993987;28;20120;-45
2021/12/02 08:34:15;;;;;;;7.57;6.47;;;;;;;3.36;87.67;99497.84;4994366;28;20508;-49
2021/12/02 08:36:45;;;;;;;9.63;7.30;;;;;;;3.42;89.36;99518.78;4994037;28;20046;-48
2021/12/02 08:39:16;;;;;;;12.90;8.68;;;;;;;3.40;89.76;99515.53;4994538;28;20046;-46
2021/12/02 08:41:48;;;;;;;13.68;9.00;;;;;;;3.45;90.15;99523.69;4994754;28;20255;-46
2021/12/02 08:44:16;;;;;;;11.95;8.77;;;;;;;3.41;90.37;99531.84;4993647;28;20416;-43
2021/12/02 08:46:47;;;;;;;16.42;9.27;;;;;;;3.31;90.69;99526.69;4994253;28;20050;-45
2021/12/02 08:49:21;;;;;;;15.93;10.48;;;;;;;3.27;90.64;99528.75;4994283;28;20144;-45
2021/12/02 08:51:49;;;;;;;17.80;9.57;;;;;;;3.19;90.99;99527.78;4994259;28;20076;-50
2021/12/02 08:54:17;;;;;;;17.50;10.15;;;;;;;3.18;90.91;99536.50;4994382;28;20058;-45
2021/12/02 08:56:44;;;;;;;15.68;10.13;;;;;;;3.17;91.02;99540.03;4993352;28;20073;-44
2021/12/02 08:59:13;;;;;;;19.80;9.90;;;;;;;3.22;91.32;99543.84;4993961;28;20054;-46
2021/12/02 09:01:40;;;;;;;16.40;9.88;;;;;;;3.22;91.67;99543.84;4993953;28;20078;-46
2021/12/02 09:04:09;;;;;;;15.18;9.77;;;;;;;3.21;91.69;99544.00;4993923;28;20480;-44
2021/12/02 09:06:36;;;;;;;14.90;9.00;;;;;;;3.20;91.49;99544.94;4993736;28;20564;-47
2021/12/02 09:09:04;;;;;;;16.60;9.15;;;;;;;3.23;91.26;99550.66;4994084;28;20129;-48
2021/12/02 09:11:33;;;;;;;16.80;9.40;;;;;;;3.21;90.73;99547.38;4994464;28;20051;-47
2021/12/02 09:14:02;;;;;;;14.65;9.90;;;;;;;3.25;90.45;99560.88;4994509;28;20054;-50
2021/12/02 09:16:30;;;;;;;14.80;9.32;;;;;;;3.31;89.94;99565.47;4994270;28;20460;-50
2021/12/02 09:18:57;;;;;;;13.88;8.75;;;;;;;3.46;89.95;99564.13;4994164;28;20050;-44
2021/12/02 09:21:26;;;;;;;14.63;8.30;;;;;;;3.31;89.88;99568.88;4994276;28;20509;-47
2021/12/02 09:23:53;;;;;;;11.77;8.23;;;;;;;3.31;90.32;99574.03;4994301;28;20046;-47
2021/12/02 09:26:20;;;;;;;16.45;8.18;;;;;;;3.45;89.95;99585.75;4994160;28;20413;-48
2021/12/02 09:28:52;;;;;;;11.80;8.13;;;;;;;3.54;89.14;99584.94;4994200;28;20050;-46
2021/12/02 09:31:19;;;;;;;10.93;7.73;;;;;;;3.59;89.15;99585.34;4994355;28;20101;-47
2021/12/02 09:33:46;;;;;;;12.35;8.35;;;;;;;3.59;89.90;99587.94;4993995;28;20117;-50
2021/12/02 09:36:12;;;;;;;12.15;7.55;;;;;;;3.54;89.06;99591.88;4993797;28;20480;-47
2021/12/02 09:38:41;;;;;;;15.45;7.75;;;;;;;3.53;89.08;99591.06;4994077;28;20450;-47
2021/12/02 09:41:08;;;;;;;13.48;8.57;;;;;;;3.55;89.29;99596.09;4993913;28;20485;-45
2021/12/02 09:43:37;;;;;;;12.40;8.20;;;;;;;3.81;88.96;99599.75;4993430;28;20411;-47
2021/12/02 09:46:04;;;;;;;12.20;8.15;;;;;;;3.77;89.09;99595.84;4993467;28;20053;-49
2021/12/02 09:48:31;;;;;;;11.43;7.93;;;;;;;3.75;89.59;99607.28;4993719;28;20114;-45
2021/12/02 09:51:05;;;;;;;9.82;6.90;;;;;;;3.61;89.36;99603.31;4993671;28;20046;-46
2021/12/02 09:53:37;;;;;;;10.23;7.00;;;;;;;3.65;89.24;99592.56;4993578;28;20053;-48
2021/12/02 09:56:16;;;;;;;10.07;7.53;;;;;;;3.43;89.17;99590.25;4993800;28;20546;-47
2021/12/02 09:58:43;;;;;;;9.20;6.72;;;;;;;3.33;89.27;99592.81;4993276;28;20054;-46
2021/12/02 10:01:12;;;;;;;10.07;7.15;;;;;;;3.30;89.62;99602.66;4993505;28;20739;-46
2021/12/02 10:03:40;;;;;;;10.02;6.50;;;;;;;3.36;89.26;99607.25;4993326;28;20424;-46
2021/12/02 10:06:09;;;;;;;11.90;6.53;;;;;;;3.33;89.79;99598.00;4993115;28;20054;-44
2021/12/02 10:08:46;;;;;;;10.07;6.60;;;;;;;3.41;89.25;99602.50;4992295;28;20050;-48
2021/12/02 10:11:27;;;;;;;10.02;6.43;;;;;;;3.51;88.84;99611.09;4993139;28;20050;-44
2021/12/02 10:14:00;;;;;;;9.02;6.25;;;;;;;3.59;87.53;99597.47;4993321;28;20065;-44
2021/12/02 10:16:28;;;;;;;9.02;5.90;;;;;;;3.57;87.89;99594.22;4992941;28;20050;-43
2021/12/02 10:19:04;;;;;;;7.10;5.40;;;;;;;3.60;87.32;99604.28;4992737;28;20148;-45
2021/12/02 10:21:38;;;;;;;7.18;5.95;;;;;;;3.51;87.75;99605.91;4993010;28;20092;-47
2021/12/02 10:24:07;;;;;;;11.27;5.65;;;;;;;3.44;87.90;99599.63;4993058;28;20054;-45
2021/12/02 10:26:40;;;;;;;8.35;6.10;;;;;;;3.41;87.68;99609.44;4992806;28;20054;-49
2021/12/02 10:29:11;;;;;;;7.68;5.75;;;;;;;3.41;88.51;99599.91;4993283;28;20266;-44
2021/12/02 10:31:38;;;;;;;11.45;5.85;;;;;;;3.39;88.38;99601.00;4992750;28;20050;-44
2021/12/02 10:34:07;;;;;;;12.27;6.00;;;;;;;3.35;89.15;99610.78;4992645;28;20101;-45
2021/12/02 10:36:37;;;;;;;10.10;5.80;;;;;;;3.35;88.16;99605.63;4993338;28;20058;-45
2021/12/02 10:39:11;;;;;;;9.80;6.60;;;;;;;3.30;87.48;99594.88;4992734;28;20178;-46
2021/12/02 10:41:43;;;;;;;8.15;5.38;;;;;;;3.28;87.55;99612.31;4992823;28;20050;-45
2021/12/02 10:44:19;;;;;;;7.37;5.50;;;;;;;3.31;87.58;99604.25;4993601;28;20150;-47
2021/12/02 10:46:57;;;;;;;14.93;6.68;;;;;;;3.35;87.81;99613.38;4993074;28;20052;-44
2021/12/02 10:49:25;;;;;;;10.02;6.20;;;;;;;3.41;87.40;99602.50;4992490;28;20073;-47
2021/12/02 10:51:54;;;;;;;11.18;6.05;;;;;;;3.52;87.75;99614.47;4992782;28;20097;-48
2021/12/02 10:54:23;;;;;;;8.63;5.53;;;;;;;3.57;87.11;99610.53;4992944;28;20489;-44
2021/12/02 10:56:53;;;;;;;12.88;5.68;;;;;;;3.56;87.10;99608.09;4992521;28;20130;-50
2021/12/02 10:59:32;;;;;;;9.35;5.53;;;;;;;3.67;87.77;99616.53;4992984;28;20101;-48
2021/12/02 11:02:02;;;;;;;8.27;5.45;;;;;;;3.68;87.34;99609.59;4992654;28;20104;-44
2021/12/02 11:04:38;;;;;;;12.82;5.30;;;;;;;3.72;87.44;99613.53;4993135;28;20046;-45
2021/12/02 11:07:10;;;;;;;12.82;5.65;;;;;;;3.67;87.09;99611.38;4993053;28;20129;-47
2021/12/02 11:09:38;;;;;;;7.60;4.60;;;;;;;3.65;86.76;99613.28;4992680;28;20046;-45
2021/12/02 11:12:12;;;;;;;6.82;4.70;;;;;;;3.76;86.60;99609.72;4992346;28;20054;-48
2021/12/02 11:14:42;;;;;;;8.35;4.07;;;;;;;3.84;86.05;99603.84;4992911;28;20046;-44
2021/12/02 11:17:11;;;;;;;9.80;4.32;;;;;;;3.86;86.83;99610.50;4993142;28;20077;-47
2021/12/02 11:19:38;;;;;;;12.43;4.63;;;;;;;3.93;86.70;99611.59;4992691;28;20479;-44
2021/12/02 11:22:10;;;;;;;9.48;3.90;;;;;;;3.96;85.96;99610.50;4992464;28;20073;-43
2021/12/02 11:24:39;;;;;;;7.65;3.70;;;;;;;3.92;85.67;99612.56;4992813;28;20078;-45
2021/12/02 11:27:20;;;;;;;5.60;3.65;;;;;;;3.94;86.61;99612.41;4992333;28;20133;-43
2021/12/02 11:29:59;;;;;;;7.82;3.70;;;;;;;4.02;86.48;99615.13;4991957;28;20069;-44
2021/12/02 11:32:34;;;;;;;10.40;4.38;;;;;;;4.08;85.80;99614.59;4992094;28;20128;-50
2021/12/02 11:35:09;;;;;;;8.02;4.20;;;;;;;3.92;85.38;99612.56;4992239;28;20101;-46
2021/12/02 11:37:38;;;;;;;8.73;4.10;;;;;;;3.95;86.35;99606.28;4992253;28;20169;-46
2021/12/02 11:40:09;;;;;;;6.40;4.13;;;;;;;4.06;86.47;99611.31;4991967;28;20054;-47
2021/12/02 11:42:38;;;;;;;6.40;4.15;;;;;;;4.03;85.25;99621.94;4992029;28;20073;-48
2021/12/02 11:45:07;;;;;;;8.00;5.32;;;;;;;3.95;84.83;99622.63;4992413;28;20054;-43
2021/12/02 11:47:34;;;;;;;6.63;4.35;;;;;;;4.03;83.38;99621.94;4992158;28;20148;-45
2021/12/02 11:50:02;;;;;;;7.70;4.55;;;;;;;3.87;83.35;99611.31;4991861;28;20092;-45